Time;durP1;ratioP1;P1;durP2;ratioP2;P2;SDS_P1;SDS_P2;PMS_P1;PMS_P2;Temp;Humidity;BMP_temperature;BMP_pressure;BME280_temperature;BME280_humidity;BME280_pressure;Samples;Min_cycle;Max_cycle;Signal;HPM_P1;HPM_P2
2022/06/15 00:01:27;;;;;;;;;;;25.40;92.00;;;;;;5072322;28;20038;-82
2022/06/15 00:03:55;;;;;;;;;;;25.40;92.00;;;;;;5070475;28;19947;-82
2022/06/15 00:06:25;;;;;;;;;;;25.30;91.80;;;;;;5091169;28;19931;-79
2022/06/15 00:08:54;;;;;;;;;;;25.30;91.70;;;;;;5090945;28;20087;-82
2022/06/15 00:11:23;;;;;;;;;;;25.30;91.60;;;;;;5074910;28;19970;-81
2022/06/15 00:13:52;;;;;;;;;;;25.30;91.50;;;;;;5092113;28;19930;-81
2022/06/15 00:16:20;;;;;;;;;;;25.30;91.30;;;;;;5075203;28;19975;-80
2022/06/15 00:18:48;;;;;;;;;;;25.40;91.20;;;;;;5077415;28;19924;-79
2022/06/15 00:21:16;;;;;;;;;;;25.40;90.90;;;;;;5091757;28;19920;-81
2022/06/15 00:23:44;;;;;;;;;;;25.40;90.70;;;;;;5091578;28;19920;-80
2022/06/15 00:26:12;;;;;;;;;;;25.40;90.60;;;;;;5091038;28;19920;-78
2022/06/15 00:28:39;;;;;;;;;;;25.40;90.50;;;;;;5090195;28;20335;-80
2022/06/15 00:31:07;;;;;;;;;;;25.40;90.30;;;;;;5075056;28;20284;-80
2022/06/15 00:33:35;;;;;;;;;;;25.40;90.20;;;;;;5075991;28;19927;-79
2022/06/15 00:36:08;;;;;;;;;;;25.50;90.10;;;;;;5077488;28;19931;-79
2022/06/15 00:38:37;;;;;;;;;;;25.50;90.00;;;;;;5094084;28;19997;-80
2022/06/15 00:41:06;;;;;;;;;;;25.50;90.00;;;;;;5093899;28;19927;-80
2022/06/15 00:43:38;;;;;;;;;;;25.50;90.00;;;;;;5073782;28;20014;-80
2022/06/15 00:46:15;;;;;;;;;;;25.50;90.00;;;;;;5074670;28;19920;-79
2022/06/15 00:48:43;;;;;;;;;;;25.40;89.90;;;;;;5091434;28;19928;-79
2022/06/15 00:51:11;;;;;;;;;;;25.40;89.80;;;;;;5074434;28;20361;-79
2022/06/15 00:53:39;;;;;;;;;;;25.40;89.70;;;;;;5091554;28;19924;-80
2022/06/15 00:56:08;;;;;;;;;;;25.40;89.60;;;;;;5073819;28;19959;-80
2022/06/15 00:58:37;;;;;;;;;;;25.40;89.70;;;;;;5106935;27;19924;-80
2022/06/15 01:01:06;;;;;;;;;;;25.40;89.70;;;;;;5073767;28;19969;-80
2022/06/15 01:03:34;;;;;;;;;;;25.40;89.50;;;;;;5091816;28;20019;-79
2022/06/15 01:06:12;;;;;;;;;;;25.40;89.50;;;;;;5091884;28;19927;-80
2022/06/15 01:08:57;;;;;;;;;;;25.30;89.40;;;;;;5097642;28;19930;-79
2022/06/15 01:11:27;;;;;;;;;;;25.30;89.40;;;;;;5073910;28;20019;-79
2022/06/15 01:14:22;;;;;;;;;;;25.20;89.50;;;;;;5094253;28;19931;-79
2022/06/15 01:16:49;;;;;;;;;;;25.20;89.50;;;;;;5073080;28;19971;-79
2022/06/15 01:19:36;;;;;;;;;;;25.20;89.60;;;;;;5081276;28;20016;-80
2022/06/15 01:22:15;;;;;;;;;;;25.10;89.50;;;;;;5074298;28;19924;-79
2022/06/15 01:24:58;;;;;;;;;;;25.10;89.60;;;;;;5084464;28;19925;-80
2022/06/15 01:27:41;;;;;;;;;;;25.10;89.60;;;;;;5090501;28;20380;-80
2022/06/15 01:30:12;;;;;;;;;;;25.10;89.60;;;;;;5103286;28;20373;-80
2022/06/15 01:32:42;;;;;;;;;;;25.00;89.60;;;;;;5090335;28;19924;-79
2022/06/15 01:35:17;;;;;;;;;;;25.00;89.60;;;;;;5093502;28;19962;-80
2022/06/15 01:37:54;;;;;;;;;;;25.00;89.70;;;;;;5094043;28;19919;-79
2022/06/15 01:40:30;;;;;;;;;;;25.00;89.90;;;;;;5111066;28;20018;-80
2022/06/15 01:43:12;;;;;;;;;;;25.00;90.00;;;;;;5111560;28;19920;-79
2022/06/15 01:45:41;;;;;;;;;;;24.90;90.00;;;;;;5082982;28;19951;-81
2022/06/15 01:48:10;;;;;;;;;;;24.90;90.10;;;;;;5111760;28;19923;-81
2022/06/15 01:51:01;;;;;;;;;;;24.90;90.20;;;;;;5077863;28;20566;-82
2022/06/15 01:53:44;;;;;;;;;;;24.90;90.30;;;;;;5093282;28;19940;-82
2022/06/15 01:56:11;;;;;;;;;;;24.90;90.30;;;;;;5077482;28;19924;-81
2022/06/15 01:58:40;;;;;;;;;;;24.90;90.40;;;;;;5076375;28;19919;-82
2022/06/15 02:01:08;;;;;;;;;;;24.80;90.30;;;;;;5077226;28;19919;-82
2022/06/15 02:03:40;;;;;;;;;;;24.80;90.40;;;;;;5094301;28;19930;-81
2022/06/15 02:06:09;;;;;;;;;;;24.70;90.50;;;;;;5076788;28;19924;-82
2022/06/15 02:08:59;;;;;;;;;;;24.70;90.50;;;;;;5076098;28;19946;-81
2022/06/15 02:11:32;;;;;;;;;;;24.70;90.60;;;;;;5092775;28;20657;-82
2022/06/15 02:14:07;;;;;;;;;;;24.60;90.60;;;;;;5075579;28;19943;-80
2022/06/15 02:16:37;;;;;;;;;;;24.60;90.60;;;;;;5076964;28;19934;-81
2022/06/15 02:19:11;;;;;;;;;;;24.60;90.70;;;;;;5049227;28;19920;-81
2022/06/15 02:21:40;;;;;;;;;;;24.60;90.80;;;;;;5057200;28;20034;-79
2022/06/15 02:24:09;;;;;;;;;;;24.60;90.90;;;;;;5073801;28;19984;-78
2022/06/15 02:26:37;;;;;;;;;;;24.60;90.90;;;;;;5073126;28;19927;-78
2022/06/15 02:29:12;;;;;;;;;;;24.60;90.90;;;;;;5073017;28;19971;-78
2022/06/15 02:31:45;;;;;;;;;;;24.50;90.90;;;;;;5041293;28;19942;-78
2022/06/15 02:34:14;;;;;;;;;;;24.60;91.00;;;;;;5056579;28;19920;-78
2022/06/15 02:36:43;;;;;;;;;;;24.60;91.00;;;;;;5056449;28;20026;-79
2022/06/15 02:39:13;;;;;;;;;;;24.60;90.90;;;;;;5073150;28;19920;-79
2022/06/15 02:41:40;;;;;;;;;;;24.50;90.80;;;;;;5073293;28;19924;-79
2022/06/15 02:44:11;;;;;;;;;;;24.50;90.80;;;;;;5090244;28;20640;-79
2022/06/15 02:46:41;;;;;;;;;;;24.40;90.90;;;;;;5055630;28;19928;-79
2022/06/15 02:49:10;;;;;;;;;;;24.40;90.80;;;;;;5072991;28;19967;-78
2022/06/15 02:51:48;;;;;;;;;;;24.40;90.90;;;;;;5056330;28;20382;-79
2022/06/15 02:54:20;;;;;;;;;;;24.30;90.90;;;;;;5056756;28;19920;-79
2022/06/15 02:56:49;;;;;;;;;;;24.30;90.90;;;;;;5072976;28;20019;-79
2022/06/15 02:59:17;;;;;;;;;;;24.20;91.00;;;;;;5090010;28;20377;-79
2022/06/15 03:01:45;;;;;;;;;;;24.20;91.20;;;;;;5081753;28;19977;-79
2022/06/15 03:04:13;;;;;;;;;;;24.20;91.30;;;;;;5073022;28;20292;-79
2022/06/15 03:06:40;;;;;;;;;;;24.10;91.40;;;;;;5056746;28;20010;-79
2022/06/15 03:09:13;;;;;;;;;;;24.10;91.40;;;;;;5072862;28;19924;-79
2022/06/15 03:11:45;;;;;;;;;;;24.10;91.50;;;;;;5056864;28;19924;-80
2022/06/15 03:14:32;;;;;;;;;;;24.10;91.40;;;;;;5089697;28;20459;-80
2022/06/15 03:17:00;;;;;;;;;;;24.00;91.40;;;;;;5055850;28;20274;-80
2022/06/15 03:19:43;;;;;;;;;;;24.00;91.50;;;;;;5056182;28;19990;-80
2022/06/15 03:22:10;;;;;;;;;;;23.90;91.50;;;;;;5056209;28;19928;-80
2022/06/15 03:24:43;;;;;;;;;;;24.00;91.70;;;;;;5089400;28;19924;-80
2022/06/15 03:27:12;;;;;;;;;;;23.90;91.70;;;;;;5072959;28;19931;-80
2022/06/15 03:29:42;;;;;;;;;;;23.90;91.80;;;;;;5072741;28;19923;-80
2022/06/15 03:32:15;;;;;;;;;;;24.00;91.80;;;;;;5055713;28;19924;-80
2022/06/15 03:34:56;;;;;;;;;;;24.00;91.90;;;;;;5106462;28;19927;-79
2022/06/15 03:37:24;;;;;;;;;;;24.00;92.00;;;;;;5055718;28;20484;-79
2022/06/15 03:39:58;;;;;;;;;;;24.00;92.00;;;;;;5056227;28;19924;-80
2022/06/15 03:42:26;;;;;;;;;;;24.10;92.10;;;;;;5060512;28;19924;-80
2022/06/15 03:44:55;;;;;;;;;;;24.10;92.20;;;;;;5059401;28;20274;-80
2022/06/15 03:47:31;;;;;;;;;;;24.10;92.30;;;;;;5075813;28;19923;-80
2022/06/15 03:49:59;;;;;;;;;;;24.20;92.40;;;;;;5093033;28;19920;-80
2022/06/15 03:52:27;;;;;;;;;;;24.30;92.60;;;;;;5075938;28;19920;-80
2022/06/15 03:54:54;;;;;;;;;;;24.40;92.70;;;;;;5058966;28;20837;-79
2022/06/15 03:57:22;;;;;;;;;;;24.40;92.70;;;;;;5088059;28;20499;-79
2022/06/15 03:59:51;;;;;;;;;;;24.50;92.70;;;;;;5096269;28;20343;-79
2022/06/15 04:02:48;;;;;;;;;;;24.60;92.70;;;;;;5100384;28;19926;-80
2022/06/15 04:05:41;;;;;;;;;;;24.70;92.60;;;;;;5074716;28;20016;-79
2022/06/15 04:08:40;;;;;;;;;;;24.80;92.50;;;;;;5079626;28;19927;-79
2022/06/15 04:14:10;;;;;;;;;;;25.00;92.40;;;;;;5079289;28;19931;-80
2022/06/15 04:16:42;;;;;;;;;;;25.10;92.40;;;;;;5096133;28;19920;-79
2022/06/15 04:19:11;;;;;;;;;;;25.20;92.30;;;;;;5096065;28;20437;-79
2022/06/15 04:21:43;;;;;;;;;;;25.30;92.30;;;;;;5096026;28;19973;-79
2022/06/15 04:24:13;;;;;;;;;;;25.40;92.20;;;;;;5096184;28;20395;-79
2022/06/15 04:26:43;;;;;;;;;;;25.50;92.20;;;;;;5095262;28;19919;-80
2022/06/15 04:29:14;;;;;;;;;;;25.70;92.20;;;;;;5112995;28;19923;-80
2022/06/15 04:31:42;;;;;;;;;;;25.80;92.10;;;;;;5095634;28;20381;-79
2022/06/15 04:34:11;;;;;;;;;;;25.90;92.00;;;;;;5079563;28;19919;-80
2022/06/15 04:36:41;;;;;;;;;;;26.00;91.90;;;;;;5095701;28;19924;-80
2022/06/15 04:39:11;;;;;;;;;;;26.10;92.00;;;;;;5112874;28;20012;-80
2022/06/15 04:41:41;;;;;;;;;;;26.20;91.90;;;;;;5096049;28;19923;-79
2022/06/15 04:44:11;;;;;;;;;;;26.30;91.90;;;;;;5109276;28;19942;-80
2022/06/15 04:46:42;;;;;;;;;;;26.40;91.80;;;;;;5112186;28;19927;-80
2022/06/15 04:49:12;;;;;;;;;;;26.50;91.70;;;;;;5112879;28;20014;-80
2022/06/15 04:51:45;;;;;;;;;;;26.60;91.70;;;;;;5079045;28;19935;-79
2022/06/15 04:54:13;;;;;;;;;;;26.70;91.60;;;;;;5095544;28;20319;-79
2022/06/15 04:56:46;;;;;;;;;;;26.80;91.50;;;;;;5094892;28;19943;-79
2022/06/15 04:59:17;;;;;;;;;;;27.00;91.40;;;;;;5079436;28;19966;-79
2022/06/15 05:01:48;;;;;;;;;;;27.00;91.30;;;;;;5095783;28;20014;-79
2022/06/15 05:04:18;;;;;;;;;;;27.10;91.10;;;;;;5095388;28;20015;-80
2022/06/15 05:06:45;;;;;;;;;;;27.20;91.10;;;;;;5094647;28;20444;-79
2022/06/15 05:09:13;;;;;;;;;;;27.30;91.00;;;;;;5112099;28;19925;-79
2022/06/15 05:11:43;;;;;;;;;;;27.40;91.00;;;;;;5095956;28;19973;-80
2022/06/15 05:14:13;;;;;;;;;;;27.50;90.90;;;;;;5112407;28;19923;-80
2022/06/15 05:16:44;;;;;;;;;;;27.60;90.80;;;;;;5095340;28;19968;-80
2022/06/15 05:19:15;;;;;;;;;;;27.70;90.80;;;;;;5095357;28;19923;-80
2022/06/15 05:21:45;;;;;;;;;;;27.80;90.70;;;;;;5078793;28;19977;-80
2022/06/15 05:24:17;;;;;;;;;;;27.90;90.50;;;;;;5112002;28;19977;-80
2022/06/15 05:26:55;;;;;;;;;;;27.90;90.40;;;;;;5096187;28;20518;-80
2022/06/15 05:29:23;;;;;;;;;;;28.10;90.30;;;;;;5094879;28;20000;-80
2022/06/15 05:31:56;;;;;;;;;;;28.10;90.00;;;;;;5094714;28;19930;-80
2022/06/15 05:34:23;;;;;;;;;;;28.30;90.00;;;;;;5094954;28;19931;-79
2022/06/15 05:36:51;;;;;;;;;;;28.30;89.90;;;;;;5109033;28;19923;-79
2022/06/15 05:39:18;;;;;;;;;;;28.40;89.70;;;;;;5110995;28;20464;-79
2022/06/15 05:41:49;;;;;;;;;;;28.50;89.50;;;;;;5111055;28;19963;-79
2022/06/15 05:47:06;;;;;;;;;;;28.70;88.60;;;;;;5094263;28;19928;-80
2022/06/15 05:49:54;;;;;;;;;;;28.80;88.10;;;;;;5086850;28;19920;-80
2022/06/15 05:52:32;;;;;;;;;;;29.00;87.60;;;;;;5094501;28;19967;-80
2022/06/15 05:55:01;;;;;;;;;;;29.10;87.10;;;;;;5110727;28;19923;-79
2022/06/15 05:57:28;;;;;;;;;;;29.20;86.90;;;;;;5093674;28;19943;-79
2022/06/15 05:59:57;;;;;;;;;;;29.30;86.30;;;;;;5111052;28;20304;-79
2022/06/15 06:02:26;;;;;;;;;;;29.40;85.90;;;;;;5111325;28;20018;-79
2022/06/15 06:04:54;;;;;;;;;;;29.50;85.80;;;;;;5110704;28;19920;-80
2022/06/15 06:07:22;;;;;;;;;;;29.60;85.80;;;;;;5111359;28;19970;-80
2022/06/15 06:09:49;;;;;;;;;;;29.70;85.70;;;;;;5094509;28;19928;-80
2022/06/15 06:12:17;;;;;;;;;;;29.90;85.40;;;;;;5094067;28;20434;-80
2022/06/15 06:14:45;;;;;;;;;;;29.90;85.30;;;;;;5111852;28;20396;-80
2022/06/15 06:17:13;;;;;;;;;;;30.00;85.30;;;;;;5111248;28;19923;-80
2022/06/15 06:19:40;;;;;;;;;;;30.10;84.30;;;;;;5111075;28;19923;-79
2022/06/15 06:22:08;;;;;;;;;;;30.20;84.60;;;;;;5094040;28;19927;-78
2022/06/15 06:24:36;;;;;;;;;;;30.30;84.00;;;;;;5110706;28;20713;-79
2022/06/15 06:27:04;;;;;;;;;;;30.40;83.70;;;;;;5110764;28;19923;-79
2022/06/15 06:29:32;;;;;;;;;;;30.50;83.80;;;;;;5094180;28;19930;-80
2022/06/15 06:32:00;;;;;;;;;;;30.60;83.60;;;;;;5089981;28;20374;-79
2022/06/15 06:34:31;;;;;;;;;;;30.60;83.40;;;;;;5090072;28;20042;-79
2022/06/15 06:36:59;;;;;;;;;;;30.70;83.30;;;;;;5106872;28;19931;-80
2022/06/15 06:39:28;;;;;;;;;;;30.80;82.90;;;;;;5073585;28;19928;-81
2022/06/15 06:41:56;;;;;;;;;;;31.00;83.10;;;;;;5073639;28;19930;-80
2022/06/15 06:44:24;;;;;;;;;;;31.00;82.70;;;;;;5107237;28;19959;-81
2022/06/15 06:46:52;;;;;;;;;;;31.20;82.90;;;;;;5107208;28;19920;-81
2022/06/15 06:49:21;;;;;;;;;;;31.20;82.80;;;;;;5089776;28;19955;-81
2022/06/15 06:51:49;;;;;;;;;;;31.20;81.90;;;;;;5089896;28;19931;-81
2022/06/15 06:54:17;;;;;;;;;;;31.30;80.90;;;;;;5090139;28;19920;-81
2022/06/15 06:56:45;;;;;;;;;;;31.40;80.90;;;;;;5056579;28;19928;-81
2022/06/15 06:59:13;;;;;;;;;;;31.40;80.90;;;;;;5073764;28;19923;-82
2022/06/15 07:01:43;;;;;;;;;;;31.40;81.10;;;;;;5056980;28;19931;-82
2022/06/15 07:04:11;;;;;;;;;;;31.50;81.40;;;;;;5090001;28;19928;-81
2022/06/15 07:06:39;;;;;;;;;;;31.50;79.80;;;;;;5090670;28;20374;-81
2022/06/15 07:09:07;;;;;;;;;;;31.50;79.00;;;;;;5089439;28;20378;-81
2022/06/15 07:11:34;;;;;;;;;;;31.60;78.50;;;;;;5106683;28;19924;-80
2022/06/15 07:14:02;;;;;;;;;;;31.70;78.80;;;;;;5089434;28;19928;-81
2022/06/15 07:16:29;;;;;;;;;;;31.70;78.80;;;;;;5073511;28;19923;-80
2022/06/15 07:18:57;;;;;;;;;;;31.80;78.90;;;;;;5090707;28;20023;-80
2022/06/15 07:21:25;;;;;;;;;;;31.90;79.10;;;;;;5072375;28;19924;-80
2022/06/15 07:23:55;;;;;;;;;;;32.00;77.80;;;;;;5089014;28;19924;-80
2022/06/15 07:26:28;;;;;;;;;;;32.00;77.50;;;;;;5057293;28;19927;-81
2022/06/15 07:28:56;;;;;;;;;;;32.00;76.30;;;;;;5055730;28;19931;-81
2022/06/15 07:31:29;;;;;;;;;;;31.90;76.40;;;;;;5056307;28;19920;-82
2022/06/15 07:33:57;;;;;;;;;;;31.90;76.50;;;;;;5073026;28;19988;-81
2022/06/15 07:36:27;;;;;;;;;;;32.00;76.70;;;;;;5106589;28;20378;-81
2022/06/15 07:38:56;;;;;;;;;;;32.00;77.10;;;;;;5089718;28;19930;-81
2022/06/15 07:41:24;;;;;;;;;;;32.10;77.40;;;;;;5106414;28;20296;-81
2022/06/15 07:43:52;;;;;;;;;;;32.00;77.30;;;;;;5090720;28;20415;-81
2022/06/15 07:46:19;;;;;;;;;;;32.10;77.60;;;;;;5088950;28;20018;-82
2022/06/15 07:51:40;;;;;;;;;;;32.20;76.90;;;;;;5078438;28;20354;-81
2022/06/15 07:54:09;;;;;;;;;;;32.10;75.30;;;;;;5094605;28;19973;-81
2022/06/15 07:56:37;;;;;;;;;;;32.20;74.30;;;;;;5072452;28;19928;-82
2022/06/15 07:59:05;;;;;;;;;;;32.20;74.80;;;;;;5089785;28;20019;-82
2022/06/15 08:01:33;;;;;;;;;;;32.20;75.90;;;;;;5089376;28;20429;-81
2022/06/15 08:04:01;;;;;;;;;;;32.20;75.50;;;;;;5089870;28;19924;-81
2022/06/15 08:06:30;;;;;;;;;;;32.20;75.80;;;;;;5072252;28;19943;-80
2022/06/15 08:08:58;;;;;;;;;;;32.20;75.20;;;;;;5106045;28;19930;-81
2022/06/15 08:11:26;;;;;;;;;;;32.10;76.40;;;;;;5089013;28;19981;-82
2022/06/15 08:13:55;;;;;;;;;;;32.00;76.90;;;;;;5089094;28;19924;-81
2022/06/15 08:16:24;;;;;;;;;;;32.10;76.70;;;;;;5089323;28;20381;-81
2022/06/15 08:18:54;;;;;;;;;;;32.10;76.80;;;;;;5089148;28;19946;-81
2022/06/15 08:21:23;;;;;;;;;;;32.20;77.10;;;;;;5104033;28;19924;-82
2022/06/15 08:23:52;;;;;;;;;;;32.30;77.20;;;;;;5072729;28;19920;-82
2022/06/15 08:26:21;;;;;;;;;;;32.40;76.50;;;;;;5106608;28;20274;-80
2022/06/15 08:28:51;;;;;;;;;;;32.30;77.30;;;;;;5093656;28;19927;-80
2022/06/15 08:31:19;;;;;;;;;;;32.40;76.60;;;;;;5093176;28;19924;-80
2022/06/15 08:33:46;;;;;;;;;;;32.50;76.70;;;;;;5093949;28;19924;-81
2022/06/15 08:36:17;;;;;;;;;;;32.60;77.20;;;;;;5076260;28;19946;-81
2022/06/15 08:38:45;;;;;;;;;;;32.70;78.30;;;;;;5092326;28;19985;-81
2022/06/15 08:41:22;;;;;;;;;;;32.70;79.00;;;;;;5092394;28;19931;-81
2022/06/15 08:44:07;;;;;;;;;;;32.80;79.70;;;;;;5092642;28;20023;-81
2022/06/15 08:46:40;;;;;;;;;;;32.80;80.30;;;;;;5092218;28;19923;-81
2022/06/15 08:49:20;;;;;;;;;;;32.80;80.60;;;;;;5109399;28;19924;-81
2022/06/15 08:51:53;;;;;;;;;;;32.70;81.60;;;;;;5109338;28;19937;-81
2022/06/15 08:54:24;;;;;;;;;;;32.80;83.10;;;;;;5075285;28;19973;-82
2022/06/15 08:56:55;;;;;;;;;;;32.70;82.20;;;;;;5092025;28;20027;-82
2022/06/15 08:59:36;;;;;;;;;;;32.40;82.80;;;;;;5093229;28;19924;-82
2022/06/15 09:02:04;;;;;;;;;;;32.50;82.70;;;;;;5091963;28;19928;-81
2022/06/15 09:04:31;;;;;;;;;;;32.50;82.90;;;;;;5075478;28;19927;-75
2022/06/15 09:07:05;;;;;;;;;;;32.60;82.40;;;;;;5089917;28;19965;-75
2022/06/15 09:09:33;;;;;;;;;;;32.50;79.60;;;;;;5124412;27;19981;-74
2022/06/15 09:15:21;;;;;;;;;;;32.40;81.60;;;;;;5084173;28;19920;-74
2022/06/15 09:17:50;;;;;;;;;;;32.40;80.30;;;;;;5084175;28;19924;-74
2022/06/15 09:20:23;;;;;;;;;;;32.40;79.80;;;;;;5090999;28;19931;-74
2022/06/15 09:22:56;;;;;;;;;;;32.50;80.60;;;;;;5090629;28;19931;-74
2022/06/15 09:25:29;;;;;;;;;;;32.40;81.40;;;;;;5124946;27;20297;-75
2022/06/15 09:27:59;;;;;;;;;;;32.40;79.90;;;;;;5092543;28;19985;-75
2022/06/15 09:30:33;;;;;;;;;;;32.30;78.60;;;;;;5091436;28;19924;-75
2022/06/15 09:33:00;;;;;;;;;;;32.40;79.30;;;;;;5125001;27;19920;-74
2022/06/15 09:35:34;;;;;;;;;;;32.50;78.20;;;;;;5090804;28;19924;-75
2022/06/15 09:38:02;;;;;;;;;;;32.40;78.60;;;;;;5091046;28;19973;-75
2022/06/15 09:40:35;;;;;;;;;;;32.30;79.00;;;;;;5090750;28;19931;-75
2022/06/15 09:43:06;;;;;;;;;;;32.30;77.70;;;;;;5108094;28;20012;-76
2022/06/15 09:45:33;;;;;;;;;;;32.30;79.40;;;;;;5074098;28;20340;-75
2022/06/15 09:48:12;;;;;;;;;;;32.30;78.80;;;;;;5090636;28;19924;-74
2022/06/15 09:50:41;;;;;;;;;;;32.30;77.40;;;;;;5091254;28;20408;-74
2022/06/15 09:53:12;;;;;;;;;;;32.30;77.20;;;;;;5091242;28;19927;-75
2022/06/15 09:55:41;;;;;;;;;;;32.30;78.10;;;;;;5091046;28;20435;-75
2022/06/15 09:58:27;;;;;;;;;;;32.40;78.10;;;;;;5105652;28;19924;-75
2022/06/15 10:00:54;;;;;;;;;;;32.50;77.90;;;;;;5090369;28;19920;-74
2022/06/15 10:03:25;;;;;;;;;;;32.40;77.90;;;;;;5110120;28;19931;-75
2022/06/15 10:05:55;;;;;;;;;;;32.40;78.10;;;;;;5112323;28;20355;-74
2022/06/15 10:08:23;;;;;;;;;;;32.30;77.30;;;;;;5094486;28;20047;-75
2022/06/15 10:10:55;;;;;;;;;;;32.40;77.20;;;;;;5111911;28;19919;-74
2022/06/15 10:13:26;;;;;;;;;;;32.30;76.10;;;;;;5110447;28;19963;-74
2022/06/15 10:15:55;;;;;;;;;;;32.20;77.20;;;;;;5111050;28;19919;-74
2022/06/15 10:18:32;;;;;;;;;;;32.20;77.10;;;;;;5110641;28;19927;-75
2022/06/15 10:21:17;;;;;;;;;;;32.20;77.30;;;;;;5112282;28;19928;-75
2022/06/15 10:23:49;;;;;;;;;;;32.20;77.40;;;;;;5110892;28;20442;-74
2022/06/15 10:26:35;;;;;;;;;;;32.10;76.90;;;;;;5093783;28;19924;-74
2022/06/15 10:29:15;;;;;;;;;;;32.10;77.70;;;;;;5093936;28;19924;-75
2022/06/15 10:31:55;;;;;;;;;;;32.00;76.80;;;;;;5111626;28;19924;-76
2022/06/15 10:34:26;;;;;;;;;;;31.90;76.40;;;;;;5110348;28;20051;-75
2022/06/15 10:37:12;;;;;;;;;;;32.00;76.70;;;;;;5110325;28;19923;-74
2022/06/15 10:39:42;;;;;;;;;;;31.90;76.10;;;;;;5093845;28;20335;-74
2022/06/15 10:42:18;;;;;;;;;;;31.90;75.20;;;;;;5111581;28;20018;-75
2022/06/15 10:44:52;;;;;;;;;;;32.10;75.50;;;;;;5110089;28;19981;-75
2022/06/15 10:47:19;;;;;;;;;;;32.00;75.40;;;;;;5093199;28;19924;-75
2022/06/15 10:49:49;;;;;;;;;;;32.10;76.20;;;;;;5108578;28;19930;-74
2022/06/15 10:52:30;;;;;;;;;;;32.00;75.70;;;;;;5108983;28;19931;-75
2022/06/15 11:04:11;;;;;;;;;;;31.90;76.70;;;;;;5092834;28;19919;-75
2022/06/15 11:06:40;;;;;;;;;;;32.10;76.60;;;;;;5109581;28;19927;-75
2022/06/15 11:09:27;;;;;;;;;;;31.90;76.20;;;;;;5109732;28;20015;-75
2022/06/15 11:11:55;;;;;;;;;;;31.90;77.00;;;;;;5111236;28;19966;-74
2022/06/15 11:14:27;;;;;;;;;;;31.90;77.10;;;;;;5109443;28;19924;-75
2022/06/15 11:19:56;;;;;;;;;;;31.80;76.40;;;;;;5111313;28;19926;-75
2022/06/15 11:22:24;;;;;;;;;;;31.70;77.00;;;;;;5111061;28;20438;-75
2022/06/15 11:24:59;;;;;;;;;;;31.60;77.50;;;;;;5110340;28;19934;-76
2022/06/15 11:27:30;;;;;;;;;;;31.70;76.60;;;;;;5093149;28;20365;-75
2022/06/15 11:30:05;;;;;;;;;;;31.60;76.60;;;;;;5109041;28;20022;-75
2022/06/15 11:32:35;;;;;;;;;;;31.50;76.70;;;;;;5092081;28;19931;-75
2022/06/15 11:35:12;;;;;;;;;;;31.60;76.80;;;;;;5110406;28;20335;-75
2022/06/15 11:37:39;;;;;;;;;;;31.60;77.30;;;;;;5093185;28;19920;-74
2022/06/15 11:40:20;;;;;;;;;;;31.60;77.00;;;;;;5092713;28;19924;-74
2022/06/15 11:42:51;;;;;;;;;;;31.60;76.60;;;;;;5109538;28;19927;-75
2022/06/15 11:45:25;;;;;;;;;;;31.60;77.00;;;;;;5085160;28;19947;-75
2022/06/15 11:48:00;;;;;;;;;;;31.50;76.30;;;;;;5109454;28;19931;-74
2022/06/15 11:50:51;;;;;;;;;;;31.50;76.70;;;;;;5111010;28;20373;-74
2022/06/15 11:53:21;;;;;;;;;;;31.40;77.90;;;;;;5106803;28;20019;-75
2022/06/15 11:55:54;;;;;;;;;;;31.40;78.00;;;;;;5109650;28;19927;-75
2022/06/15 11:58:27;;;;;;;;;;;31.40;77.90;;;;;;5110831;28;20373;-75
2022/06/15 12:00:57;;;;;;;;;;;31.30;78.30;;;;;;5109100;28;20674;-74
2022/06/15 12:03:36;;;;;;;;;;;31.30;78.10;;;;;;5114647;28;20365;-75
2022/06/15 12:06:13;;;;;;;;;;;31.30;78.30;;;;;;5096260;28;19927;-74
2022/06/15 12:08:52;;;;;;;;;;;31.30;78.60;;;;;;5095938;28;19930;-75
2022/06/15 12:14:12;;;;;;;;;;;31.00;77.40;;;;;;5095457;28;19989;-74
2022/06/15 12:16:59;;;;;;;;;;;30.80;77.70;;;;;;5112462;28;19935;-75
2022/06/15 12:19:33;;;;;;;;;;;30.70;77.80;;;;;;5079224;28;19924;-74
2022/06/15 12:22:05;;;;;;;;;;;30.70;78.00;;;;;;5114047;28;19991;-75
2022/06/15 12:24:36;;;;;;;;;;;30.70;78.00;;;;;;5112831;28;20365;-74
2022/06/15 12:27:10;;;;;;;;;;;30.70;77.60;;;;;;5113924;28;19980;-74
2022/06/15 12:29:37;;;;;;;;;;;30.70;78.10;;;;;;5095234;28;20288;-75
2022/06/15 12:35:00;;;;;;;;;;;30.90;78.80;;;;;;5094570;28;19931;-75
2022/06/15 12:37:31;;;;;;;;;;;30.80;78.50;;;;;;5112342;28;20027;-74
2022/06/15 12:39:59;;;;;;;;;;;30.70;78.50;;;;;;5113671;28;20329;-74
2022/06/15 12:42:26;;;;;;;;;;;30.80;78.60;;;;;;5113717;28;19924;-75
2022/06/15 12:44:54;;;;;;;;;;;30.70;78.60;;;;;;5094653;28;19955;-75
2022/06/15 12:47:23;;;;;;;;;;;30.80;78.20;;;;;;5112649;28;19925;-75
2022/06/15 12:49:51;;;;;;;;;;;30.70;77.90;;;;;;5111555;28;19920;-75
2022/06/15 12:52:26;;;;;;;;;;;30.70;78.10;;;;;;5074849;28;19943;-74
2022/06/15 12:55:14;;;;;;;;;;;30.80;77.90;;;;;;5091212;28;19923;-74
2022/06/15 12:57:53;;;;;;;;;;;30.80;78.10;;;;;;5091799;28;19924;-75
2022/06/15 13:00:21;;;;;;;;;;;30.90;77.80;;;;;;5074141;28;19931;-75
2022/06/15 13:02:58;;;;;;;;;;;30.90;77.40;;;;;;5108680;28;20449;-75
2022/06/15 13:05:29;;;;;;;;;;;30.90;77.10;;;;;;5074738;28;19923;-75
2022/06/15 13:08:12;;;;;;;;;;;30.90;76.90;;;;;;5074309;28;19931;-74
2022/06/15 13:10:54;;;;;;;;;;;30.70;77.20;;;;;;5092339;28;20056;-75
2022/06/15 13:13:28;;;;;;;;;;;30.70;78.10;;;;;;5074205;28;20022;-75
2022/06/15 13:15:59;;;;;;;;;;;30.70;78.10;;;;;;5091970;28;19968;-74
2022/06/15 13:18:49;;;;;;;;;;;30.60;77.50;;;;;;5093856;28;19924;-76
2022/06/15 13:21:18;;;;;;;;;;;30.50;77.50;;;;;;5100598;28;20231;-74
2022/06/15 13:23:46;;;;;;;;;;;30.40;77.90;;;;;;5074470;28;19927;-74
2022/06/15 13:26:15;;;;;;;;;;;30.50;78.30;;;;;;5074319;28;20431;-74
2022/06/15 13:28:43;;;;;;;;;;;30.60;78.20;;;;;;5073484;28;20293;-75
2022/06/15 13:31:13;;;;;;;;;;;30.60;77.50;;;;;;5091115;28;20068;-74
2022/06/15 13:33:48;;;;;;;;;;;30.40;77.30;;;;;;5091331;28;19958;-75
2022/06/15 13:36:17;;;;;;;;;;;30.30;77.50;;;;;;5074500;28;19931;-75
2022/06/15 13:38:45;;;;;;;;;;;30.30;78.20;;;;;;5092670;28;20281;-75
2022/06/15 13:41:24;;;;;;;;;;;30.40;76.60;;;;;;5075460;28;20422;-75
2022/06/15 13:43:53;;;;;;;;;;;30.40;76.90;;;;;;5107767;28;19930;-74
2022/06/15 13:46:27;;;;;;;;;;;30.40;76.70;;;;;;5091878;28;19923;-75
2022/06/15 13:49:14;;;;;;;;;;;30.50;76.90;;;;;;5090621;28;20046;-74
2022/06/15 13:51:49;;;;;;;;;;;30.50;75.80;;;;;;5092152;28;20023;-74
2022/06/15 13:54:23;;;;;;;;;;;30.40;75.60;;;;;;5091871;28;19931;-75
2022/06/15 13:57:11;;;;;;;;;;;30.40;76.10;;;;;;5107378;28;19963;-75
2022/06/15 13:59:50;;;;;;;;;;;30.50;76.30;;;;;;5092239;28;19931;-75
2022/06/15 14:02:33;;;;;;;;;;;30.50;75.10;;;;;;5075593;28;19928;-76
2022/06/15 14:05:20;;;;;;;;;;;30.30;75.90;;;;;;5090580;28;19927;-75
2022/06/15 14:07:49;;;;;;;;;;;30.30;75.80;;;;;;5090354;28;20288;-74
2022/06/15 14:10:26;;;;;;;;;;;30.20;75.80;;;;;;5091652;28;20390;-75
2022/06/15 14:13:00;;;;;;;;;;;30.20;75.30;;;;;;5106662;28;19924;-75
2022/06/15 14:15:33;;;;;;;;;;;30.20;75.10;;;;;;5091530;28;19920;-75
2022/06/15 14:18:04;;;;;;;;;;;30.20;74.30;;;;;;5089849;28;19931;-74
2022/06/15 14:20:36;;;;;;;;;;;30.20;74.10;;;;;;5089651;28;19934;-74
2022/06/15 14:23:07;;;;;;;;;;;30.30;74.00;;;;;;5091674;28;20301;-74
2022/06/15 14:25:56;;;;;;;;;;;30.30;73.70;;;;;;5089174;28;20014;-74
2022/06/15 14:28:27;;;;;;;;;;;30.40;73.00;;;;;;5106495;28;19930;-74
2022/06/15 14:31:07;;;;;;;;;;;30.30;73.30;;;;;;5089956;28;19969;-74
2022/06/15 14:33:35;;;;;;;;;;;30.30;74.20;;;;;;5108357;28;20014;-75
2022/06/15 14:36:03;;;;;;;;;;;30.20;74.50;;;;;;5093713;28;19919;-74
2022/06/15 14:38:32;;;;;;;;;;;30.10;73.30;;;;;;5093557;28;20407;-74
2022/06/15 14:41:10;;;;;;;;;;;30.10;72.10;;;;;;5111714;28;19971;-75
2022/06/15 14:43:38;;;;;;;;;;;30.10;72.00;;;;;;5110756;28;20023;-74
2022/06/15 14:46:06;;;;;;;;;;;30.10;71.70;;;;;;5093721;28;20297;-75
2022/06/15 14:48:35;;;;;;;;;;;30.10;71.90;;;;;;5093284;28;19919;-76
2022/06/15 14:51:11;;;;;;;;;;;30.00;71.70;;;;;;5110041;28;20374;-74
2022/06/15 14:53:58;;;;;;;;;;;30.10;71.80;;;;;;5110465;28;19933;-74
2022/06/15 14:56:28;;;;;;;;;;;30.00;71.80;;;;;;5110344;28;19923;-74
2022/06/15 14:58:57;;;;;;;;;;;29.90;72.10;;;;;;5076381;28;20296;-76
2022/06/15 15:01:24;;;;;;;;;;;29.80;71.60;;;;;;5093308;28;19920;-74
2022/06/15 15:03:52;;;;;;;;;;;29.80;71.80;;;;;;5110184;28;20421;-77
2022/06/15 15:06:21;;;;;;;;;;;29.90;72.20;;;;;;5109564;28;19923;-76
2022/06/15 15:08:50;;;;;;;;;;;29.90;71.90;;;;;;5109955;28;19920;-77
2022/06/15 15:11:30;;;;;;;;;;;29.90;71.90;;;;;;5111171;28;19919;-76
2022/06/15 15:14:00;;;;;;;;;;;30.00;71.70;;;;;;5109953;28;19923;-77